createdAt,value
2022-11-03T00:01:35.924Z,10.90
2022-11-03T00:04:04.129Z,10.50
2022-11-03T00:06:31.972Z,10.80
2022-11-03T00:09:00.602Z,10.80
2022-11-03T00:11:28.779Z,10.80
2022-11-03T00:13:58.674Z,10.50
2022-11-03T00:16:26.726Z,10.80
2022-11-03T00:18:55.160Z,10.60
2022-11-03T00:21:23.248Z,10.90
2022-11-03T00:23:51.875Z,10.80
2022-11-03T00:26:21.610Z,10.60
2022-11-03T00:28:50.995Z,10.70
2022-11-03T00:31:22.426Z,10.80
2022-11-03T00:33:50.731Z,10.80
2022-11-03T00:36:20.618Z,10.80
2022-11-03T00:38:49.255Z,10.60
2022-11-03T00:43:46.115Z,10.60
2022-11-03T00:46:14.232Z,10.60
2022-11-03T00:48:43.655Z,10.60
2022-11-03T00:51:12.985Z,10.60
2022-11-03T00:53:42.087Z,10.50
2022-11-03T00:56:14.057Z,10.60
2022-11-03T00:58:42.478Z,10.50
2022-11-03T01:01:13.636Z,10.50
2022-11-03T01:04:05.773Z,10.70
2022-11-03T01:06:51.624Z,10.50
2022-11-03T01:09:20.930Z,10.50
2022-11-03T01:11:57.425Z,10.40
2022-11-03T01:14:26.054Z,10.50
2022-11-03T01:16:53.881Z,10.50
2022-11-03T01:19:23.679Z,10.40
2022-11-03T01:21:51.529Z,10.40
2022-11-03T01:24:19.564Z,10.40
2022-11-03T01:26:47.467Z,10.40
2022-11-03T01:29:15.411Z,10.40
2022-11-03T01:31:44.193Z,10.40
2022-11-03T01:34:15.908Z,10.40
2022-11-03T01:36:45.888Z,10.60
2022-11-03T01:39:15.921Z,10.40
2022-11-03T01:41:45.940Z,10.40
2022-11-03T01:44:33.044Z,10.40
2022-11-03T01:47:10.038Z,10.40
2022-11-03T01:49:44.514Z,10.40
2022-11-03T01:52:19.332Z,10.30
2022-11-03T01:54:51.201Z,10.30
2022-11-03T01:57:23.726Z,10.40
2022-11-03T01:59:52.786Z,10.30
2022-11-03T02:02:20.811Z,10.40
2022-11-03T02:04:48.738Z,10.30
2022-11-03T02:07:25.014Z,10.20
2022-11-03T02:09:52.872Z,10.20
2022-11-03T02:12:22.262Z,10.20
2022-11-03T02:14:54.313Z,10.20
2022-11-03T02:17:24.129Z,10.10
2022-11-03T02:19:58.099Z,10.10
2022-11-03T02:22:51.001Z,10.10
2022-11-03T02:25:33.587Z,10.10
2022-11-03T02:28:01.913Z,10.20
2022-11-03T02:30:35.822Z,10.20
2022-11-03T02:33:12.377Z,10.10
2022-11-03T02:35:46.111Z,10.20
2022-11-03T02:38:18.117Z,10.20
2022-11-03T02:40:51.756Z,10.20
2022-11-03T02:43:20.518Z,10.20
2022-11-03T02:45:50.275Z,10.20
2022-11-03T02:48:19.903Z,10.20
2022-11-03T02:50:49.568Z,10.20
2022-11-03T02:53:17.743Z,10.10
2022-11-03T02:55:54.420Z,10.10
2022-11-03T02:58:28.353Z,10.00
2022-11-03T03:01:01.909Z,10.00
2022-11-03T03:03:33.374Z,10.00
2022-11-03T03:06:06.004Z,10.30
2022-11-03T03:08:35.951Z,9.90
2022-11-03T03:11:07.137Z,9.90
2022-11-03T03:13:35.123Z,9.80
2022-11-03T03:16:09.080Z,9.90
2022-11-03T03:18:46.354Z,9.90
2022-11-03T03:21:18.351Z,9.90
2022-11-03T03:23:50.673Z,9.80
2022-11-03T03:26:23.701Z,12.20
2022-11-03T03:28:55.126Z,9.80
2022-11-03T03:31:25.460Z,9.70
2022-11-03T03:34:04.574Z,9.70
2022-11-03T03:36:40.725Z,9.60
2022-11-03T03:39:12.491Z,9.60
2022-11-03T03:41:42.645Z,9.60
2022-11-03T03:44:12.893Z,9.60
2022-11-03T03:46:45.475Z,9.60
2022-11-03T03:49:13.376Z,9.60
2022-11-03T03:51:43.437Z,9.60
2022-11-03T03:54:11.449Z,10.30
2022-11-03T03:56:46.873Z,9.70
2022-11-03T03:59:15.066Z,9.70
2022-11-03T04:01:43.192Z,9.70
2022-11-03T04:04:11.128Z,9.70
2022-11-03T04:06:38.965Z,9.80
2022-11-03T04:09:06.833Z,9.70
2022-11-03T04:11:51.202Z,9.70
2022-11-03T04:14:37.980Z,9.70
2022-11-03T04:17:23.313Z,9.70
2022-11-03T04:20:08.727Z,9.70
2022-11-03T04:22:36.674Z,9.70
2022-11-03T04:25:04.879Z,9.60
2022-11-03T04:27:34.886Z,9.60
2022-11-03T04:30:14.189Z,9.60
2022-11-03T04:32:42.234Z,9.60
2022-11-03T04:35:18.218Z,9.60
2022-11-03T04:37:47.988Z,9.60
2022-11-03T04:40:17.643Z,9.60
2022-11-03T04:42:46.374Z,9.60
2022-11-03T04:45:24.539Z,9.50
2022-11-03T04:47:53.900Z,9.60
2022-11-03T04:50:24.878Z,9.50
2022-11-03T04:52:56.275Z,9.60
2022-11-03T04:55:24.374Z,9.60
2022-11-03T04:57:57.725Z,9.50
2022-11-03T05:00:27.145Z,9.50
2022-11-03T05:02:56.393Z,9.50
2022-11-03T05:05:27.204Z,9.50
2022-11-03T05:07:57.586Z,9.50
2022-11-03T05:10:27.869Z,9.30
2022-11-03T05:12:57.364Z,9.60
2022-11-03T05:15:36.593Z,9.50
2022-11-03T05:18:18.643Z,9.50
2022-11-03T05:20:49.994Z,9.50
2022-11-03T05:23:19.300Z,9.40
2022-11-03T05:25:50.504Z,9.40
2022-11-03T05:28:24.456Z,9.50
2022-11-03T05:30:54.062Z,9.50
2022-11-03T05:33:35.236Z,9.40
2022-11-03T05:36:09.205Z,9.40
2022-11-03T05:38:37.032Z,9.40
2022-11-03T05:41:07.566Z,9.50
2022-11-03T05:43:35.391Z,9.40
2022-11-03T05:46:04.760Z,9.50
2022-11-03T05:48:35.237Z,9.50
2022-11-03T05:51:13.084Z,9.50
2022-11-03T05:53:43.472Z,9.50
2022-11-03T05:56:18.108Z,9.50
2022-11-03T05:58:47.243Z,9.50
2022-11-03T06:01:20.655Z,10.00
2022-11-03T06:03:48.674Z,9.60
2022-11-03T06:06:21.524Z,9.70
2022-11-03T06:08:49.774Z,9.60
2022-11-03T06:11:27.796Z,10.00
2022-11-03T06:13:58.040Z,9.60
2022-11-03T06:16:43.158Z,9.60
2022-11-03T06:19:26.608Z,9.60
2022-11-03T06:21:57.979Z,9.60
2022-11-03T06:24:31.003Z,9.60
2022-11-03T06:26:59.216Z,9.60
2022-11-03T06:29:27.482Z,9.60
2022-11-03T06:31:58.332Z,9.60
2022-11-03T06:34:39.603Z,9.60
2022-11-03T06:37:23.426Z,9.70
2022-11-03T06:39:54.520Z,9.70
2022-11-03T06:42:26.666Z,9.70
2022-11-03T06:44:57.162Z,9.70
2022-11-03T06:47:28.600Z,10.00
2022-11-03T06:49:59.103Z,9.70
2022-11-03T06:52:30.335Z,9.70
2022-11-03T06:55:16.860Z,9.80
2022-11-03T06:57:47.823Z,9.80
2022-11-03T07:00:33.999Z,10.00
2022-11-03T07:03:10.031Z,9.80
2022-11-03T07:05:38.920Z,9.80
2022-11-03T07:08:18.671Z,9.80
2022-11-03T07:10:46.574Z,9.90
2022-11-03T07:13:17.049Z,9.90
2022-11-03T07:15:45.321Z,9.90
2022-11-03T07:18:21.910Z,9.90
2022-11-03T07:20:50.232Z,9.90
2022-11-03T07:23:21.658Z,10.00
2022-11-03T07:25:53.440Z,10.00
2022-11-03T07:28:22.997Z,10.00
2022-11-03T07:30:51.017Z,10.00
2022-11-03T07:33:26.434Z,10.00
2022-11-03T07:38:46.006Z,10.00
2022-11-03T07:41:19.271Z,10.40
2022-11-03T07:43:52.479Z,10.80
2022-11-03T07:46:22.165Z,10.10
2022-11-03T07:48:54.030Z,10.10
2022-11-03T07:51:24.795Z,10.10
2022-11-03T07:53:54.357Z,10.10
2022-11-03T07:56:24.376Z,10.20
2022-11-03T07:58:55.306Z,10.10
2022-11-03T08:01:28.649Z,10.20
2022-11-03T08:04:01.689Z,10.10
2022-11-03T08:06:29.516Z,10.10
2022-11-03T08:08:57.334Z,10.20
2022-11-03T08:11:28.062Z,10.20
2022-11-03T08:13:57.256Z,10.20
2022-11-03T08:16:25.079Z,10.20
2022-11-03T08:18:52.899Z,10.30
2022-11-03T08:21:22.114Z,10.30
2022-11-03T08:23:49.962Z,10.30
2022-11-03T08:26:17.920Z,10.30
2022-11-03T08:28:45.789Z,10.40
2022-11-03T08:31:13.644Z,10.40
2022-11-03T08:33:41.940Z,10.40
2022-11-03T08:36:10.464Z,10.30
2022-11-03T08:38:39.865Z,10.40
2022-11-03T08:41:07.687Z,10.30
2022-11-03T08:43:35.667Z,10.40
2022-11-03T08:46:15.403Z,10.50
2022-11-03T08:48:45.742Z,10.50
2022-11-03T08:51:14.562Z,10.50
2022-11-03T08:53:44.272Z,10.50
2022-11-03T08:56:14.320Z,10.50
2022-11-03T08:58:43.691Z,10.50
2022-11-03T09:01:11.617Z,10.60
2022-11-03T09:03:39.794Z,10.50
2022-11-03T09:06:08.227Z,10.60
2022-11-03T09:11:25.273Z,10.60
2022-11-03T09:13:53.171Z,10.60
2022-11-03T09:16:20.995Z,10.70
2022-11-03T09:18:48.800Z,10.70
2022-11-03T09:21:16.795Z,10.80
2022-11-03T09:23:44.641Z,10.80
2022-11-03T09:26:12.470Z,10.80
2022-11-03T09:28:41.631Z,10.80
2022-11-03T09:31:09.484Z,10.80
2022-11-03T09:33:37.291Z,10.80
2022-11-03T09:36:05.290Z,10.90
2022-11-03T09:38:33.138Z,10.90
2022-11-03T09:41:02.173Z,10.90
2022-11-03T09:43:30.095Z,10.90
2022-11-03T09:46:00.022Z,10.90
2022-11-03T09:48:28.035Z,10.90
2022-11-03T09:50:56.164Z,11.00
2022-11-03T09:53:24.010Z,11.00
2022-11-03T09:55:51.832Z,11.00
2022-11-03T09:58:19.939Z,11.00
2022-11-03T10:00:48.272Z,11.00
2022-11-03T10:03:20.722Z,11.10
2022-11-03T10:05:49.181Z,11.10
2022-11-03T10:08:23.449Z,11.10
2022-11-03T10:10:51.558Z,11.10
2022-11-03T10:13:26.979Z,11.00
2022-11-03T10:15:54.914Z,11.10
2022-11-03T10:18:24.872Z,11.10
2022-11-03T10:20:52.699Z,11.10
2022-11-03T10:23:20.512Z,11.20
2022-11-03T10:25:48.755Z,11.20
2022-11-03T10:28:22.124Z,11.20
2022-11-03T10:33:43.214Z,11.30
2022-11-03T10:36:27.648Z,11.30
2022-11-03T10:38:56.194Z,12.20
2022-11-03T10:41:25.251Z,11.30
2022-11-03T10:44:05.647Z,11.40
2022-11-03T10:46:50.374Z,11.40
2022-11-03T10:49:21.516Z,11.40
2022-11-03T10:51:52.109Z,11.50
2022-11-03T10:54:21.598Z,11.50
2022-11-03T10:56:50.941Z,11.50
2022-11-03T10:59:20.970Z,11.50
2022-11-03T11:01:49.033Z,11.60
2022-11-03T11:04:17.869Z,11.60
2022-11-03T11:06:48.144Z,11.60
2022-11-03T11:09:19.460Z,11.60
2022-11-03T11:12:17.321Z,11.70
2022-11-03T11:14:54.471Z,11.70
2022-11-03T11:17:47.697Z,11.70
2022-11-03T11:20:34.593Z,11.80
2022-11-03T11:23:35.662Z,11.80
2022-11-03T11:26:15.222Z,11.90
2022-11-03T11:28:44.356Z,11.90
2022-11-03T11:31:31.950Z,11.90
2022-11-03T11:34:37.419Z,11.90
2022-11-03T11:37:36.411Z,12.00
2022-11-03T11:40:12.368Z,12.00
2022-11-03T11:43:11.055Z,12.00
2022-11-03T11:46:16.577Z,12.00
2022-11-03T11:48:45.736Z,12.00
2022-11-03T11:51:13.666Z,12.00
2022-11-03T11:53:42.949Z,12.00
2022-11-03T11:56:13.016Z,12.10
2022-11-03T11:58:45.612Z,12.10
2022-11-03T12:01:24.469Z,12.20
2022-11-03T12:03:56.477Z,12.20
2022-11-03T12:06:35.102Z,12.10
2022-11-03T12:09:07.764Z,12.30
2022-11-03T12:11:45.840Z,12.40
2022-11-03T12:14:34.158Z,12.50
2022-11-03T12:17:35.029Z,12.50
2022-11-03T12:20:36.734Z,12.50
2022-11-03T12:23:04.557Z,12.50
2022-11-03T12:25:35.936Z,12.50
2022-11-03T12:28:03.972Z,12.50
2022-11-03T12:30:36.830Z,12.50
2022-11-03T12:33:07.515Z,12.50
2022-11-03T12:35:36.933Z,12.50
2022-11-03T12:38:04.736Z,13.30
2022-11-03T12:40:32.562Z,12.80
2022-11-03T12:43:00.380Z,12.90
2022-11-03T12:45:28.201Z,12.90
2022-11-03T12:47:56.003Z,12.90
2022-11-03T12:50:23.795Z,13.00
2022-11-03T12:52:52.982Z,13.00
2022-11-03T12:55:20.845Z,12.90
2022-11-03T12:57:48.853Z,12.80
2022-11-03T13:00:17.552Z,12.80
2022-11-03T13:02:45.434Z,12.70
2022-11-03T13:05:15.302Z,12.60
2022-11-03T13:07:43.410Z,12.60
2022-11-03T13:10:12.706Z,12.50
2022-11-03T13:12:41.560Z,12.40
2022-11-03T13:15:13.314Z,12.40
2022-11-03T13:18:06.978Z,12.30
2022-11-03T13:20:29.191Z,12.30
2022-11-03T13:22:56.983Z,12.30
2022-11-03T13:25:26.428Z,12.20
2022-11-03T13:27:54.764Z,12.10
2022-11-03T13:30:22.607Z,12.10
2022-11-03T13:32:50.485Z,12.10
2022-11-03T13:35:18.869Z,12.10
2022-11-03T13:37:46.923Z,12.00
2022-11-03T13:40:35.627Z,12.10
2022-11-03T13:43:05.148Z,12.00
2022-11-03T13:45:33.314Z,12.10
2022-11-03T13:50:50.836Z,12.00
2022-11-03T13:56:08.697Z,12.00
2022-11-03T14:01:27.546Z,12.00
2022-11-03T14:06:43.509Z,12.00
2022-11-03T14:09:11.573Z,11.90
2022-11-03T14:11:57.193Z,11.90
2022-11-03T14:14:26.370Z,11.90
2022-11-03T14:16:54.332Z,11.90
2022-11-03T14:19:27.037Z,11.90
2022-11-03T14:22:01.322Z,11.90
2022-11-03T14:24:29.182Z,11.90
2022-11-03T14:26:57.060Z,11.90
2022-11-03T14:29:27.015Z,11.90
2022-11-03T14:31:54.840Z,11.90
2022-11-03T14:34:22.745Z,11.90
2022-11-03T14:36:50.726Z,11.90
2022-11-03T14:39:18.692Z,11.90
2022-11-03T14:42:04.536Z,11.90
2022-11-03T14:44:34.884Z,11.90
2022-11-03T14:47:03.507Z,11.90
2022-11-03T14:49:32.864Z,11.90
2022-11-03T14:52:02.533Z,11.80
2022-11-03T14:54:31.296Z,11.80
2022-11-03T14:56:59.564Z,11.80
2022-11-03T14:59:27.618Z,11.80
2022-11-03T15:01:57.507Z,11.80
2022-11-03T15:04:25.848Z,11.80
2022-11-03T15:06:54.395Z,11.80
2022-11-03T15:09:22.347Z,11.80
2022-11-03T15:11:50.417Z,11.80
2022-11-03T15:14:18.285Z,11.70
2022-11-03T15:16:46.269Z,11.70
2022-11-03T15:19:15.475Z,11.70
2022-11-03T15:21:43.345Z,11.80
2022-11-03T15:27:00.019Z,11.60
2022-11-03T15:29:27.865Z,11.70
2022-11-03T15:31:55.670Z,11.60
2022-11-03T15:34:24.849Z,11.60
2022-11-03T15:36:52.679Z,11.60
2022-11-03T15:39:20.487Z,11.60
2022-11-03T15:41:48.312Z,11.60
2022-11-03T15:44:16.174Z,11.50
2022-11-03T15:46:44.015Z,11.60
2022-11-03T15:49:11.813Z,11.50
2022-11-03T15:51:40.989Z,11.50
2022-11-03T15:54:09.153Z,11.50
2022-11-03T15:56:36.962Z,11.50
2022-11-03T15:59:04.822Z,11.50
2022-11-03T16:01:32.717Z,11.50
2022-11-03T16:04:01.071Z,11.40
2022-11-03T16:06:53.812Z,11.40
2022-11-03T16:09:18.057Z,11.40
2022-11-03T16:11:45.871Z,11.70
2022-11-03T16:14:13.704Z,11.40
2022-11-03T16:16:41.542Z,11.90
2022-11-03T16:19:10.340Z,11.40
2022-11-03T16:21:38.334Z,11.40
2022-11-03T16:24:06.664Z,11.40
2022-11-03T16:26:35.903Z,11.40
2022-11-03T16:29:04.098Z,11.40
2022-11-03T16:31:31.959Z,11.30
2022-11-03T16:34:00.003Z,11.40
2022-11-03T16:36:27.859Z,11.40
2022-11-03T16:38:55.769Z,11.30
2022-11-03T16:41:23.607Z,11.40
2022-11-03T16:43:52.790Z,11.30
2022-11-03T16:46:20.634Z,11.30
2022-11-03T16:48:48.477Z,11.30
2022-11-03T16:51:16.380Z,11.30
2022-11-03T16:53:44.207Z,11.30
2022-11-03T16:56:12.178Z,11.30
2022-11-03T16:58:40.391Z,11.20
2022-11-03T17:01:09.604Z,11.30
2022-11-03T17:03:37.422Z,11.30
2022-11-03T17:06:05.541Z,11.30
2022-11-03T17:11:35.925Z,11.30
2022-11-03T17:14:05.382Z,11.30
2022-11-03T17:16:34.695Z,11.30
2022-11-03T17:19:02.533Z,11.30
2022-11-03T17:21:30.411Z,11.20
2022-11-03T17:23:59.800Z,11.30
2022-11-03T17:26:32.948Z,11.30
2022-11-03T17:29:00.826Z,11.20
2022-11-03T17:31:28.739Z,11.20
2022-11-03T17:33:59.481Z,11.20
2022-11-03T17:36:27.623Z,11.20
2022-11-03T17:38:56.713Z,11.20
2022-11-03T17:41:25.403Z,11.20
2022-11-03T17:43:53.218Z,11.30
2022-11-03T17:46:21.207Z,11.20
2022-11-03T17:48:49.029Z,11.20
2022-11-03T17:51:18.220Z,11.20
2022-11-03T17:53:46.610Z,11.20
2022-11-03T17:56:33.685Z,11.20
2022-11-03T17:59:01.986Z,11.20
2022-11-03T18:01:30.026Z,11.20
2022-11-03T18:03:58.538Z,11.20
2022-11-03T18:06:27.734Z,11.30
2022-11-03T18:08:55.562Z,11.20
2022-11-03T18:11:44.727Z,11.20
2022-11-03T18:14:12.917Z,11.20
2022-11-03T18:16:41.558Z,11.20
2022-11-03T18:19:12.313Z,11.20
2022-11-03T18:21:41.929Z,11.20
2022-11-03T18:24:13.215Z,11.20
2022-11-03T18:26:41.689Z,11.20
2022-11-03T18:29:09.718Z,11.30
2022-11-03T18:31:41.088Z,11.20
2022-11-03T18:34:14.435Z,11.20
2022-11-03T18:36:44.263Z,11.20
2022-11-03T18:39:17.886Z,11.20
2022-11-03T18:41:45.902Z,11.20
2022-11-03T18:44:20.292Z,11.20
2022-11-03T18:46:48.835Z,11.20
2022-11-03T18:49:17.091Z,11.20
2022-11-03T18:51:49.511Z,11.20
2022-11-03T18:54:21.107Z,11.20
2022-11-03T18:56:49.350Z,11.20
2022-11-03T18:59:24.558Z,11.20
2022-11-03T19:01:52.589Z,11.20
2022-11-03T19:04:20.690Z,11.20
2022-11-03T19:06:51.834Z,11.30
2022-11-03T19:09:24.324Z,11.20
2022-11-03T19:11:54.245Z,11.20
2022-11-03T19:14:26.380Z,11.20
2022-11-03T19:19:47.407Z,11.30
2022-11-03T19:22:18.669Z,11.20
2022-11-03T19:24:49.462Z,11.20
2022-11-03T19:27:20.807Z,11.20
2022-11-03T19:29:49.565Z,11.20
2022-11-03T19:32:21.357Z,11.20
2022-11-03T19:34:53.400Z,11.20
2022-11-03T19:37:22.767Z,11.20
2022-11-03T19:39:50.620Z,11.20
2022-11-03T19:42:29.800Z,11.20
2022-11-03T19:44:58.910Z,11.20
2022-11-03T19:47:32.502Z,11.20
2022-11-03T19:50:02.263Z,11.20
2022-11-03T19:52:32.614Z,11.20
2022-11-03T19:55:02.764Z,11.20
2022-11-03T19:57:30.608Z,11.20
2022-11-03T19:59:59.064Z,11.20
2022-11-03T20:02:28.321Z,11.20
2022-11-03T20:04:56.464Z,11.30
2022-11-03T20:07:31.574Z,11.30
2022-11-03T20:10:02.787Z,11.20
2022-11-03T20:12:31.630Z,11.30
2022-11-03T20:14:59.584Z,11.20
2022-11-03T20:17:27.423Z,11.20
2022-11-03T20:19:55.247Z,11.20
2022-11-03T20:22:30.088Z,11.20
2022-11-03T20:25:01.544Z,11.20
2022-11-03T20:27:30.806Z,11.20
2022-11-03T20:29:58.696Z,11.30
2022-11-03T20:32:26.536Z,11.20
2022-11-03T20:34:55.050Z,11.20
2022-11-03T20:37:22.959Z,11.20
2022-11-03T20:39:50.942Z,11.20
2022-11-03T20:42:21.953Z,11.20
2022-11-03T20:44:51.656Z,11.30
2022-11-03T20:47:19.961Z,11.20
2022-11-03T20:49:48.394Z,11.30
2022-11-03T20:52:16.459Z,11.20
2022-11-03T20:54:44.762Z,11.20
2022-11-03T20:57:15.667Z,11.20
2022-11-03T20:59:43.591Z,11.10
2022-11-03T21:02:14.274Z,11.20
2022-11-03T21:04:43.104Z,11.20
2022-11-03T21:07:12.802Z,11.20
2022-11-03T21:09:43.595Z,11.20
2022-11-03T21:12:14.758Z,11.10
2022-11-03T21:15:00.362Z,11.10
2022-11-03T21:17:46.907Z,11.10
2022-11-03T21:20:14.873Z,11.10
2022-11-03T21:22:53.299Z,11.10
2022-11-03T21:25:24.042Z,11.20
2022-11-03T21:27:53.480Z,11.10
2022-11-03T21:30:21.776Z,11.20
2022-11-03T21:32:51.091Z,11.10
2022-11-03T21:35:20.725Z,11.10
2022-11-03T21:37:48.922Z,11.10
2022-11-03T21:40:17.603Z,11.10
2022-11-03T21:43:03.123Z,11.10
2022-11-03T21:45:30.946Z,11.10
2022-11-03T21:48:18.168Z,11.10
2022-11-03T21:50:46.320Z,11.10
2022-11-03T21:53:14.374Z,11.10
2022-11-03T21:55:42.309Z,11.10
2022-11-03T21:58:10.493Z,11.10
2022-11-03T22:00:38.330Z,11.10
2022-11-03T22:03:07.887Z,11.10
2022-11-03T22:05:35.930Z,11.10
2022-11-03T22:08:03.795Z,11.10
2022-11-03T22:10:31.874Z,11.10
2022-11-03T22:12:59.727Z,11.10
2022-11-03T22:15:44.965Z,11.10
2022-11-03T22:18:14.137Z,11.10
2022-11-03T22:20:59.600Z,11.30
2022-11-03T22:23:45.120Z,11.20
2022-11-03T22:26:32.575Z,11.20
2022-11-03T22:29:18.223Z,11.20
2022-11-03T22:31:46.065Z,11.10
2022-11-03T22:34:32.685Z,11.20
2022-11-03T22:37:00.858Z,11.10
2022-11-03T22:39:46.172Z,11.20
2022-11-03T22:42:31.769Z,11.20
2022-11-03T22:45:17.299Z,11.20
2022-11-03T22:47:45.227Z,11.20
2022-11-03T22:50:14.457Z,11.20
2022-11-03T22:52:42.258Z,11.20
2022-11-03T22:55:09.268Z,11.20
2022-11-03T22:57:37.083Z,11.20
2022-11-03T23:00:06.590Z,11.20
2022-11-03T23:02:34.471Z,11.20
2022-11-03T23:05:02.329Z,11.20
2022-11-03T23:07:34.757Z,11.20
2022-11-03T23:10:05.357Z,11.20
2022-11-03T23:12:33.225Z,11.20
2022-11-03T23:15:18.655Z,11.20
2022-11-03T23:18:00.397Z,11.20
2022-11-03T23:20:45.714Z,11.20
2022-11-03T23:23:34.876Z,11.20
2022-11-03T23:26:01.730Z,11.20
2022-11-03T23:28:29.536Z,11.20
2022-11-03T23:30:57.343Z,11.20
2022-11-03T23:33:25.171Z,11.20
2022-11-03T23:35:53.194Z,11.20
2022-11-03T23:38:22.454Z,11.20
2022-11-03T23:40:50.246Z,11.20
2022-11-03T23:43:18.064Z,11.20
2022-11-03T23:46:03.174Z,11.20
2022-11-03T23:48:49.334Z,11.20
2022-11-03T23:51:18.911Z,11.20
2022-11-03T23:53:48.363Z,11.30
2022-11-03T23:56:35.586Z,11.30
2022-11-03T23:59:04.156Z,11.40
